Time;durP1;ratioP1;P1;durP2;ratioP2;P2;SDS_P1;SDS_P2;PMS_P1;PMS_P2;Temp;Humidity;BMP_temperature;BMP_pressure;BME280_temperature;BME280_humidity;BME280_pressure;Samples;Min_cycle;Max_cycle;Signal;HPM_P1;HPM_P2
2021/07/02 00:00:51;;;;;;;;;49.75;39.00;;;;;18.90;64.44;100848.22;5075582;27;61232;-59
2021/07/02 00:03:16;;;;;;;;;48.25;38.00;;;;;18.85;64.67;100856.56;5075452;28;45400;-60
2021/07/02 00:05:42;;;;;;;;;43.25;36.50;;;;;18.78;64.97;100860.63;5076142;28;55302;-58
2021/07/02 00:08:07;;;;;;;;;46.75;37.25;;;;;18.68;65.20;100861.28;5076198;28;45392;-59
2021/07/02 00:10:33;;;;;;;;;47.00;38.50;;;;;18.62;65.52;100855.50;5076556;28;45966;-59
2021/07/02 00:12:58;;;;;;;;;41.00;36.25;;;;;18.54;65.59;100848.03;5076639;28;45401;-59
2021/07/02 00:15:23;;;;;;;;;44.50;35.00;;;;;18.48;65.77;100849.34;5075723;28;63292;-58
2021/07/02 00:17:49;;;;;;;;;43.25;36.75;;;;;18.41;66.00;100853.38;5075433;28;68436;-62
2021/07/02 00:20:14;;;;;;;;;48.75;39.00;;;;;18.37;66.20;100854.56;5075992;28;62054;-59
2021/07/02 00:22:40;;;;;;;;;54.50;42.50;;;;;18.32;66.56;100854.03;5076384;28;45318;-59
2021/07/02 00:25:06;;;;;;;;;49.25;39.00;;;;;18.26;66.84;100849.97;5075775;28;48458;-60
2021/07/02 00:27:31;;;;;;;;;47.50;37.50;;;;;18.22;67.10;100845.81;5076046;28;45394;-59
2021/07/02 00:29:56;;;;;;;;;48.50;37.75;;;;;18.17;67.15;100854.13;5075952;28;45259;-60
2021/07/02 00:32:22;;;;;;;;;46.75;36.00;;;;;18.13;67.43;100843.78;5075072;28;45325;-58
2021/07/02 00:34:47;;;;;;;;;45.75;36.50;;;;;18.08;67.34;100852.91;5075321;28;60673;-59
2021/07/02 00:37:12;;;;;;;;;51.50;39.00;;;;;18.05;67.47;100852.28;5076066;28;48962;-59
2021/07/02 00:39:38;;;;;;;;;48.00;38.75;;;;;18.00;67.85;100851.69;5074936;28;67653;-59
2021/07/02 00:42:03;;;;;;;;;48.25;39.75;;;;;17.98;67.77;100858.91;5075553;28;56540;-58
2021/07/02 00:44:36;;;;;;;;;46.25;37.50;;;;;17.94;68.14;100864.44;5075128;28;60284;-58
2021/07/02 00:47:01;;;;;;;;;52.75;42.50;;;;;17.92;68.18;100860.19;5076126;28;45228;-58
2021/07/02 00:49:27;;;;;;;;;52.75;41.50;;;;;17.87;68.44;100862.31;5075697;28;45370;-58
2021/07/02 00:51:52;;;;;;;;;43.25;34.50;;;;;17.88;68.44;100862.19;5074075;28;50907;-59
2021/07/02 00:54:18;;;;;;;;;43.25;36.25;;;;;17.85;68.44;100865.06;5075735;28;46087;-59
2021/07/02 00:56:43;;;;;;;;;48.75;39.25;;;;;17.84;68.61;100859.88;5075751;28;52858;-59
2021/07/02 00:59:08;;;;;;;;;48.25;37.50;;;;;17.81;68.47;100858.25;5075355;27;48969;-59
2021/07/02 01:01:35;;;;;;;;;50.25;37.25;;;;;17.80;68.87;100864.53;5057443;28;46788;-60
2021/07/02 01:04:00;;;;;;;;;49.00;37.00;;;;;17.80;68.94;100861.88;5057473;28;45405;-59
2021/07/02 01:06:25;;;;;;;;;50.25;41.00;;;;;17.80;69.20;100861.88;5075549;28;45327;-60
2021/07/02 01:08:51;;;;;;;;;50.25;39.50;;;;;17.78;69.22;100851.34;5075086;28;57948;-59
2021/07/02 01:11:16;;;;;;;;;48.00;40.25;;;;;17.66;69.16;100838.84;5075950;28;45349;-60
2021/07/02 01:13:42;;;;;;;;;46.75;40.25;;;;;17.72;69.31;100854.41;5073800;28;51269;-59
2021/07/02 01:16:07;;;;;;;;;49.25;37.25;;;;;17.69;69.42;100846.63;5078371;28;45345;-59
2021/07/02 01:18:32;;;;;;;;;44.00;34.25;;;;;17.62;69.35;100842.66;5078553;28;58120;-60
2021/07/02 01:20:58;;;;;;;;;46.50;35.75;;;;;17.65;69.56;100842.47;5078686;28;63159;-59
2021/07/02 01:23:25;;;;;;;;;48.25;38.00;;;;;17.63;69.47;100855.00;5078409;28;62852;-59
2021/07/02 01:25:50;;;;;;;;;47.25;37.50;;;;;17.59;69.47;100851.69;5078892;28;45448;-59
2021/07/02 01:28:16;;;;;;;;;44.75;38.75;;;;;17.58;69.82;100849.97;5078829;28;53723;-59
2021/07/02 01:30:41;;;;;;;;;49.50;39.75;;;;;17.54;69.88;100851.13;5079357;28;45629;-59
2021/07/02 01:33:10;;;;;;;;;50.25;37.50;;;;;17.51;69.93;100846.03;5078743;28;45326;-59
2021/07/02 01:35:36;;;;;;;;;49.00;40.75;;;;;17.48;70.26;100844.41;5077628;28;45436;-60
2021/07/02 01:38:02;;;;;;;;;45.00;36.50;;;;;17.47;70.38;100847.16;5078969;28;45373;-58
2021/07/02 01:40:27;;;;;;;;;44.50;37.50;;;;;17.44;70.54;100845.56;5077598;28;45553;-58
2021/07/02 01:42:53;;;;;;;;;47.50;37.50;;;;;17.43;70.48;100837.69;5077330;28;46965;-60
2021/07/02 01:45:18;;;;;;;;;52.75;41.75;;;;;17.40;70.72;100837.88;5078316;28;58380;-60
2021/07/02 01:47:44;;;;;;;;;47.50;39.25;;;;;17.37;70.88;100837.13;5078311;28;55989;-60
2021/07/02 01:50:09;;;;;;;;;48.00;40.25;;;;;17.36;70.77;100837.22;5078319;28;52649;-59
2021/07/02 01:52:35;;;;;;;;;46.75;37.50;;;;;17.34;70.79;100833.81;5078407;27;45383;-60
2021/07/02 01:55:00;;;;;;;;;52.50;42.00;;;;;17.31;70.98;100837.53;5078660;28;45912;-59
2021/07/02 01:57:26;;;;;;;;;52.00;38.75;;;;;17.30;71.10;100835.84;5077444;28;45363;-60
2021/07/02 01:59:52;;;;;;;;;50.00;39.50;;;;;17.27;71.22;100832.50;5077403;27;45560;-59
2021/07/02 02:02:18;;;;;;;;;49.75;40.00;;;;;17.27;71.35;100838.69;5077376;28;46425;-59
2021/07/02 02:04:43;;;;;;;;;48.25;38.25;;;;;17.27;71.42;100832.50;5078531;28;45432;-59
2021/07/02 02:07:09;;;;;;;;;51.75;40.25;;;;;17.25;71.44;100829.09;5077204;28;45369;-59
2021/07/02 02:09:34;;;;;;;;;49.75;38.50;;;;;17.23;71.65;100827.38;5078081;28;55447;-60
2021/07/02 02:12:00;;;;;;;;;50.00;41.00;;;;;17.20;71.70;100832.06;5078473;27;45993;-60
2021/07/02 02:14:25;;;;;;;;;44.50;38.50;;;;;17.18;71.62;100832.13;5077253;28;45340;-59
2021/07/02 02:16:51;;;;;;;;;55.75;43.00;;;;;17.16;71.97;100825.22;5077268;28;49427;-59
2021/07/02 02:19:16;;;;;;;;;49.25;38.00;;;;;17.14;71.85;100827.13;5078392;28;45538;-59
2021/07/02 02:21:41;;;;;;;;;49.50;39.75;;;;;17.12;72.16;100829.88;5078057;28;50495;-60
2021/07/02 02:24:07;;;;;;;;;50.50;41.00;;;;;17.11;72.18;100828.16;5078180;28;45370;-60
2021/07/02 02:26:32;;;;;;;;;51.25;40.00;;;;;17.06;72.50;100820.50;5076696;28;53346;-59
2021/07/02 02:28:58;;;;;;;;;50.25;41.50;;;;;17.08;72.28;100823.91;5078287;28;45323;-59
2021/07/02 02:31:23;;;;;;;;;52.75;42.50;;;;;17.07;72.39;100830.19;5076498;28;47399;-59
2021/07/02 02:33:48;;;;;;;;;52.75;41.50;;;;;17.06;72.45;100824.97;5076949;28;45391;-58
2021/07/02 02:36:14;;;;;;;;;54.75;43.00;;;;;17.05;72.52;100825.91;5076177;28;53036;-59
2021/07/02 02:38:39;;;;;;;;;55.00;41.25;;;;;17.04;72.94;100816.22;5077912;28;45551;-61
2021/07/02 02:41:05;;;;;;;;;54.75;42.50;;;;;17.04;73.21;100822.41;5076730;28;45282;-61
2021/07/02 02:43:30;;;;;;;;;53.75;41.50;;;;;17.06;73.05;100812.53;5076412;28;45390;-60
2021/07/02 02:45:55;;;;;;;;;50.50;40.50;;;;;17.11;73.09;100827.34;5077723;27;45403;-60
2021/07/02 02:48:24;;;;;;;;;49.25;41.50;;;;;17.12;73.27;100821.06;5077666;28;59256;-60
2021/07/02 02:50:49;;;;;;;;;50.75;39.75;;;;;17.11;73.31;100820.19;5078071;28;46264;-61
2021/07/02 02:53:15;;;;;;;;;55.50;41.50;;;;;17.09;73.40;100824.75;5076924;27;65040;-60
2021/07/02 02:55:40;;;;;;;;;56.25;46.50;;;;;17.06;73.55;100822.31;5077635;27;45358;-62
2021/07/02 02:58:05;;;;;;;;;51.50;40.75;;;;;17.05;73.61;100817.94;5077536;28;46586;-60
2021/07/02 03:00:31;;;;;;;;;47.50;39.75;;;;;17.05;73.80;100817.94;5077398;27;45437;-59
2021/07/02 03:02:56;;;;;;;;;51.00;40.50;;;;;17.04;73.80;100817.09;5077485;27;53701;-61
2021/07/02 03:05:22;;;;;;;;;50.25;40.00;;;;;17.05;73.90;100818.81;5077251;28;63830;-61
2021/07/02 03:07:47;;;;;;;;;50.25;41.50;;;;;17.05;73.91;100821.47;5077188;28;53340;-60
2021/07/02 03:10:13;;;;;;;;;48.25;39.25;;;;;17.04;74.20;100816.22;5077549;27;46808;-59
2021/07/02 03:12:38;;;;;;;;;54.50;42.75;;;;;17.05;74.20;100812.63;5077445;27;45435;-59
2021/07/02 03:15:05;;;;;;;;;50.00;39.50;;;;;17.05;74.02;100808.19;5077457;28;45693;-59
2021/07/02 03:17:30;;;;;;;;;49.75;40.50;;;;;17.06;74.46;100807.22;5077614;28;45465;-59
2021/07/02 03:19:55;;;;;;;;;49.50;39.75;;;;;17.02;74.44;100803.06;5077103;28;46124;-59
2021/07/02 03:22:21;;;;;;;;;49.50;40.50;;;;;16.99;74.12;100808.56;5077522;28;45408;-58
2021/07/02 03:24:46;;;;;;;;;46.50;38.25;;;;;16.94;74.10;100814.13;5076243;28;45373;-59
2021/07/02 03:27:12;;;;;;;;;48.25;38.25;;;;;16.90;74.41;100809.09;5077443;28;45350;-58
2021/07/02 03:29:37;;;;;;;;;51.50;39.75;;;;;16.86;74.56;100811.09;5077046;28;45818;-58
2021/07/02 03:32:03;;;;;;;;;48.75;40.00;;;;;16.84;74.58;100813.00;5077154;27;45277;-59
2021/07/02 03:34:29;;;;;;;;;51.00;39.50;;;;;16.82;74.96;100806.94;5076777;27;45160;-59
2021/07/02 03:36:54;;;;;;;;;50.00;39.50;;;;;16.80;74.88;100817.66;5075383;28;61247;-60
2021/07/02 03:39:20;;;;;;;;;48.25;37.50;;;;;16.79;75.26;100810.63;5074867;28;64537;-59
2021/07/02 03:41:45;;;;;;;;;51.50;40.00;;;;;16.78;75.21;100814.22;5075670;28;45270;-59
2021/07/02 03:44:10;;;;;;;;;51.75;40.75;;;;;16.76;75.27;100809.97;5075326;28;52543;-60
2021/07/02 03:46:36;;;;;;;;;49.50;40.25;;;;;16.76;75.60;100809.97;5076222;28;55896;-58
2021/07/02 03:49:01;;;;;;;;;48.00;39.00;;;;;16.78;75.07;100808.06;5075703;28;45788;-59
2021/07/02 03:51:27;;;;;;;;;49.25;40.25;;;;;16.75;75.19;100802.97;5076679;28;45454;-59
2021/07/02 03:53:52;;;;;;;;;47.00;38.50;;;;;16.77;75.29;100814.34;5077273;27;45428;-57
2021/07/02 03:56:17;;;;;;;;;50.50;39.25;;;;;16.78;74.97;100818.69;5076396;28;51255;-59
2021/07/02 03:58:43;;;;;;;;;51.50;40.75;;;;;16.78;75.32;100810.72;5076018;27;60018;-59
2021/07/02 04:01:08;;;;;;;;;49.25;39.00;;;;;16.78;74.95;100816.03;5092325;27;45283;-60
2021/07/02 04:03:34;;;;;;;;;47.50;39.75;;;;;16.77;75.50;100815.19;5076010;28;60370;-59
2021/07/02 04:05:59;;;;;;;;;45.75;38.50;;;;;16.79;75.13;100817.75;5076657;28;45607;-59
2021/07/02 04:08:25;;;;;;;;;48.75;40.50;;;;;16.79;74.90;100821.25;5076685;27;46082;-59
2021/07/02 04:10:50;;;;;;;;;47.00;37.50;;;;;16.79;75.42;100823.06;5076119;27;45364;-59
2021/07/02 04:13:16;;;;;;;;;50.25;39.00;;;;;16.83;75.12;100829.03;5076240;28;50513;-59
2021/07/02 04:15:41;;;;;;;;;48.00;38.50;;;;;16.84;74.94;100820.09;5076799;27;45534;-59
2021/07/02 04:18:07;;;;;;;;;49.75;41.00;;;;;16.87;75.38;100827.88;5076278;28;46121;-59
2021/07/02 04:20:33;;;;;;;;;48.50;39.50;;;;;16.89;75.00;100829.50;5057892;28;45339;-59
2021/07/02 04:22:58;;;;;;;;;49.25;39.50;;;;;16.91;75.14;100834.72;5075251;28;45274;-59
2021/07/02 04:25:24;;;;;;;;;50.25;40.50;;;;;16.93;74.97;100828.38;5076152;28;54209;-58
2021/07/02 04:27:49;;;;;;;;;55.00;42.75;;;;;16.98;74.97;100822.81;5076107;28;46214;-58
2021/07/02 04:30:15;;;;;;;;;51.75;41.00;;;;;17.03;75.09;100826.03;5074210;28;63705;-59
2021/07/02 04:32:40;;;;;;;;;47.00;39.00;;;;;17.06;74.75;100831.13;5076083;28;45262;-59
2021/07/02 04:35:08;;;;;;;;;52.50;41.00;;;;;17.11;74.67;100835.31;5076305;28;45302;-59
2021/07/02 04:37:34;;;;;;;;;52.75;42.75;;;;;17.17;74.88;100837.56;5076099;28;47086;-59
2021/07/02 04:39:59;;;;;;;;;49.25;41.25;;;;;17.20;74.64;100853.31;5075993;28;45318;-59
2021/07/02 04:42:24;;;;;;;;;51.75;39.75;;;;;17.23;74.98;100847.81;5076526;28;45910;-60
2021/07/02 04:44:50;;;;;;;;;50.75;42.75;;;;;17.30;74.57;100840.28;5076127;28;46338;-59
2021/07/02 04:47:15;;;;;;;;;51.50;42.00;;;;;17.37;74.50;100846.91;5076163;28;46163;-59
2021/07/02 04:49:41;;;;;;;;;48.50;39.75;;;;;17.44;74.20;100850.03;5075129;28;45418;-59
2021/07/02 04:52:06;;;;;;;;;50.75;40.50;;;;;17.50;74.02;100841.66;5074606;28;45411;-59
2021/07/02 04:54:32;;;;;;;;;49.50;40.50;;;;;17.58;74.02;100836.69;5075185;28;59506;-59
2021/07/02 04:56:58;;;;;;;;;57.75;46.00;;;;;17.67;73.87;100837.91;5074345;28;57448;-59
2021/07/02 04:59:30;;;;;;;;;55.25;44.75;;;;;17.80;73.83;100841.44;5075695;27;45273;-60
2021/07/02 05:01:56;;;;;;;;;51.75;40.75;;;;;18.04;73.57;100842.59;5076172;28;45305;-58
2021/07/02 05:04:22;;;;;;;;;49.50;40.75;;;;;18.36;73.24;100842.19;5076032;28;45675;-60
2021/07/02 05:06:47;;;;;;;;;50.75;41.75;;;;;18.72;72.14;100839.75;5074195;28;48204;-60
2021/07/02 05:09:12;;;;;;;;;50.75;39.50;;;;;19.06;71.39;100835.53;5073567;28;65839;-61
2021/07/02 05:11:38;;;;;;;;;51.75;42.00;;;;;19.36;71.16;100842.28;5075308;28;48973;-59
2021/07/02 05:14:04;;;;;;;;;48.50;40.00;;;;;19.66;70.14;100838.31;5075798;27;45484;-59
2021/07/02 05:16:29;;;;;;;;;53.75;44.75;;;;;19.97;69.32;100836.03;5075486;27;47030;-59
2021/07/02 05:18:54;;;;;;;;;52.00;42.75;;;;;20.17;68.26;100844.34;5074032;28;45378;-60
2021/07/02 05:21:20;;;;;;;;;55.00;42.00;;;;;20.29;67.98;100843.41;5074807;28;55377;-60
2021/07/02 05:23:45;;;;;;;;;43.50;37.00;;;;;20.44;67.60;100843.19;5074656;28;53485;-59
2021/07/02 05:26:12;;;;;;;;;53.00;43.25;;;;;20.55;67.00;100848.53;5074523;28;65614;-60
2021/07/02 05:28:38;;;;;;;;;54.25;42.75;;;;;20.70;66.37;100846.47;5074955;27;45472;-59
2021/07/02 05:31:03;;;;;;;;;52.50;42.00;;;;;20.78;65.65;100837.88;5075314;27;45385;-60
2021/07/02 05:33:29;;;;;;;;;57.75;41.00;;;;;20.73;65.88;100843.56;5074928;28;64106;-60
2021/07/02 05:35:54;;;;;;;;;51.00;41.50;;;;;20.78;65.52;100835.19;5075136;28;45981;-61
2021/07/02 05:38:20;;;;;;;;;51.25;41.00;;;;;20.82;65.61;100843.84;5075205;27;45418;-59
2021/07/02 05:40:45;;;;;;;;;51.00;39.25;;;;;20.81;65.59;100840.31;5074381;28;59890;-60
2021/07/02 05:43:10;;;;;;;;;50.75;41.25;;;;;20.86;65.25;100835.44;5075423;27;45315;-60
2021/07/02 05:45:36;;;;;;;;;50.50;40.25;;;;;21.05;64.99;100841.16;5074476;28;60648;-58
2021/07/02 05:48:02;;;;;;;;;46.25;39.75;;;;;21.24;64.50;100840.50;5074710;28;52288;-60
2021/07/02 05:50:28;;;;;;;;;51.00;40.50;;;;;21.49;64.39;100843.84;5075432;28;45294;-59
2021/07/02 05:52:55;;;;;;;;;52.75;41.00;;;;;21.76;63.35;100846.09;5075069;28;45370;-61
2021/07/02 05:55:21;;;;;;;;;49.75;38.50;;;;;22.04;63.02;100849.13;5074629;28;46057;-59
2021/07/02 05:57:46;;;;;;;;;47.75;39.75;;;;;22.21;62.23;100850.34;5073261;28;46071;-60
2021/07/02 06:00:12;;;;;;;;;52.00;41.75;;;;;22.27;61.86;100855.22;5073434;28;45444;-59
2021/07/02 06:02:38;;;;;;;;;55.00;43.50;;;;;22.20;61.70;100845.97;5078420;27;45596;-58
2021/07/02 06:05:04;;;;;;;;;50.75;41.00;;;;;22.07;61.59;100856.91;5078124;28;46259;-59
2021/07/02 06:07:29;;;;;;;;;50.75;39.75;;;;;21.92;61.70;100853.66;5078364;28;45528;-60
2021/07/02 06:09:55;;;;;;;;;52.50;41.75;;;;;21.85;62.35;100855.16;5077476;28;54213;-61
2021/07/02 06:12:20;;;;;;;;;52.00;41.25;;;;;21.91;62.14;100851.97;5078412;28;45446;-60
2021/07/02 06:14:46;;;;;;;;;56.00;44.25;;;;;22.02;61.86;100851.91;5078035;28;45898;-59
2021/07/02 06:17:11;;;;;;;;;52.25;40.00;;;;;22.07;61.69;100858.72;5077085;28;66368;-61
2021/07/02 06:19:36;;;;;;;;;55.00;41.25;;;;;22.07;61.59;100850.66;5077075;28;65993;-60
2021/07/02 06:22:02;;;;;;;;;50.50;42.00;;;;;22.00;61.44;100847.69;5077021;28;45265;-59
2021/07/02 06:24:28;;;;;;;;;52.50;41.00;;;;;21.90;61.78;100855.63;5077783;28;45360;-60
2021/07/02 06:26:53;;;;;;;;;54.75;40.50;;;;;21.81;61.46;100849.22;5078059;28;45400;-61
2021/07/02 06:29:19;;;;;;;;;57.25;44.25;;;;;21.74;61.67;100848.88;5076752;28;45780;-60
2021/07/02 06:31:44;;;;;;;;;54.25;44.25;;;;;21.64;61.42;100842.59;5077508;28;45207;-60
2021/07/02 06:34:10;;;;;;;;;56.25;43.75;;;;;21.49;62.03;100835.81;5092455;27;63796;-63
2021/07/02 06:36:35;;;;;;;;;56.00;44.50;;;;;21.42;61.96;100840.81;5077418;28;45242;-61
2021/07/02 06:39:01;;;;;;;;;55.50;43.50;;;;;21.37;62.35;100845.69;5078041;27;45332;-60
2021/07/02 06:41:27;;;;;;;;;54.25;42.75;;;;;21.29;62.19;100835.63;5077922;28;45575;-61
2021/07/02 06:43:52;;;;;;;;;55.75;44.50;;;;;21.33;61.81;100847.78;5077539;28;46150;-60
2021/07/02 06:46:17;;;;;;;;;56.25;43.50;;;;;21.30;61.84;100846.19;5076936;28;52550;-60
2021/07/02 06:48:43;;;;;;;;;51.50;42.25;;;;;21.30;62.19;100854.22;5077151;28;47857;-59
2021/07/02 06:51:08;;;;;;;;;55.75;44.00;;;;;21.30;61.75;100848.88;5077699;28;45446;-60
2021/07/02 06:53:34;;;;;;;;;56.25;43.00;;;;;21.31;61.91;100847.06;5077140;28;61487;-60
2021/07/02 06:55:59;;;;;;;;;50.75;42.75;;;;;21.34;61.64;100852.16;5076748;28;63334;-60
2021/07/02 06:58:24;;;;;;;;;53.50;41.75;;;;;21.37;61.98;100854.59;5077415;28;45743;-60
2021/07/02 07:00:50;;;;;;;;;54.00;44.00;;;;;21.41;61.46;100849.81;5077336;27;45457;-61
2021/07/02 07:03:15;;;;;;;;;52.50;43.25;;;;;21.43;61.75;100851.41;5076487;27;56346;-60
2021/07/02 07:05:41;;;;;;;;;53.25;42.50;;;;;21.43;61.46;100848.72;5058853;28;45349;-60
2021/07/02 07:08:08;;;;;;;;;50.50;40.75;;;;;21.43;61.24;100861.25;5077312;27;45274;-60
2021/07/02 07:10:34;;;;;;;;;58.25;45.50;;;;;21.46;61.58;100869.03;5077650;27;45364;-60
2021/07/02 07:12:59;;;;;;;;;51.00;42.25;;;;;21.52;61.42;100854.28;5076459;27;47008;-60
2021/07/02 07:15:26;;;;;;;;;53.25;41.75;;;;;21.57;61.01;100863.63;5075683;28;45208;-60
2021/07/02 07:17:52;;;;;;;;;52.75;43.50;;;;;21.62;61.13;100865.06;5075852;28;45462;-60
2021/07/02 07:20:18;;;;;;;;;54.25;44.50;;;;;21.69;61.30;100861.81;5077344;27;45488;-59
2021/07/02 07:22:44;;;;;;;;;56.75;45.50;;;;;21.79;60.83;100858.34;5076657;28;46180;-61
2021/07/02 07:25:09;;;;;;;;;52.50;42.75;;;;;21.87;60.78;100855.88;5076917;27;45376;-60
2021/07/02 07:27:36;;;;;;;;;53.00;43.75;;;;;22.00;60.58;100861.91;5076055;28;45492;-59
2021/07/02 07:30:01;;;;;;;;;53.25;42.75;;;;;22.08;60.25;100865.75;5077156;27;45539;-62
2021/07/02 07:32:27;;;;;;;;;63.75;50.25;;;;;22.14;60.59;100866.09;5076469;28;46087;-61
2021/07/02 07:34:58;;;;;;;;;58.25;46.00;;;;;22.26;60.21;100858.84;5076647;27;45255;-60
2021/07/02 07:37:26;;;;;;;;;54.50;44.25;;;;;22.37;59.98;100863.28;5076644;27;45547;-61
2021/07/02 07:39:52;;;;;;;;;52.00;43.00;;;;;22.46;59.97;100867.03;5076685;28;45475;-59
2021/07/02 07:42:18;;;;;;;;;48.75;40.00;;;;;22.52;58.58;100869.19;5075443;28;72664;-61
2021/07/02 07:44:43;;;;;;;;;53.25;42.75;;;;;22.56;59.34;100859.91;5076324;28;45243;-60
2021/07/02 07:47:09;;;;;;;;;49.50;42.50;;;;;22.66;58.74;100867.97;5076747;28;45247;-60
2021/07/02 07:49:34;;;;;;;;;51.00;41.50;;;;;22.75;58.07;100867.16;5077178;27;45235;-61
2021/07/02 07:54:40;;;;;;;;;50.50;40.50;;;;;22.87;57.50;100875.97;5076865;27;45524;-60
2021/07/02 07:57:05;;;;;;;;;52.00;40.50;;;;;22.94;57.35;100870.06;5076681;28;45424;-60
2021/07/02 07:59:33;;;;;;;;;50.25;41.50;;;;;23.03;57.12;100871.94;5076213;28;45525;-62
2021/07/02 08:01:58;;;;;;;;;49.25;38.75;;;;;23.14;56.80;100874.50;5075986;27;45352;-59
2021/07/02 08:04:24;;;;;;;;;46.50;38.50;;;;;23.26;56.35;100880.66;5075917;28;58735;-60
2021/07/02 08:06:52;;;;;;;;;49.50;40.00;;;;;23.35;55.68;100868.28;5074820;28;45269;-60
2021/07/02 08:09:18;;;;;;;;;46.00;37.00;;;;;23.47;55.93;100875.22;5076562;28;45544;-60
2021/07/02 08:11:43;;;;;;;;;45.50;37.00;;;;;23.60;55.06;100874.09;5075939;27;47470;-61
2021/07/02 08:14:09;;;;;;;;;44.75;36.25;;;;;23.75;54.83;100872.69;5075208;28;45457;-60
2021/07/02 08:16:34;;;;;;;;;43.00;36.25;;;;;23.91;54.58;100865.88;5076622;27;45863;-61
2021/07/02 08:19:00;;;;;;;;;47.00;37.50;;;;;24.11;53.71;100882.03;5058122;28;45660;-61
2021/07/02 08:21:25;;;;;;;;;35.50;30.50;;;;;24.21;52.85;100878.34;5074410;28;48037;-61
2021/07/02 08:23:51;;;;;;;;;32.50;30.00;;;;;24.30;52.07;100875.78;5075382;27;45404;-59
2021/07/02 08:26:17;;;;;;;;;37.25;31.25;;;;;24.35;52.00;100879.72;5075373;27;45678;-60
2021/07/02 08:31:27;;;;;;;;;38.50;33.00;;;;;24.56;51.21;100880.53;5074414;28;45650;-60
2021/07/02 08:33:52;;;;;;;;;43.75;33.50;;;;;24.68;51.20;100878.50;5073553;28;65514;-60
2021/07/02 08:36:18;;;;;;;;;37.00;32.75;;;;;24.79;50.47;100883.75;5073776;28;58444;-60
2021/07/02 08:38:43;;;;;;;;;42.25;35.50;;;;;24.89;50.76;100881.84;5075674;28;45314;-60
2021/07/02 08:41:12;;;;;;;;;47.00;37.00;;;;;25.03;50.11;100887.72;5075966;28;46925;-61
2021/07/02 08:43:39;;;;;;;;;39.75;34.00;;;;;25.16;49.74;100879.31;5074424;28;45416;-61
2021/07/02 08:46:05;;;;;;;;;39.25;34.50;;;;;25.27;49.46;100879.09;5075547;28;45389;-61
2021/07/02 08:48:30;;;;;;;;;42.50;34.75;;;;;25.45;48.63;100878.28;5074219;28;45370;-60
2021/07/02 08:50:56;;;;;;;;;42.00;33.25;;;;;25.59;48.93;100872.41;5074206;28;46002;-60
2021/07/02 08:53:21;;;;;;;;;41.50;34.00;;;;;25.75;48.74;100870.84;5074342;28;45428;-61
2021/07/02 08:55:47;;;;;;;;;47.50;36.00;;;;;25.85;48.12;100873.47;5075606;28;45332;-62
2021/07/02 08:58:13;;;;;;;;;38.50;34.00;;;;;25.79;48.19;100862.31;5074203;28;45322;-61
2021/07/02 09:00:40;;;;;;;;;41.50;34.50;;;;;25.89;47.92;100872.16;5074444;28;46274;-61
2021/07/02 09:03:24;;;;;;;;;29.50;29.25;;;;;26.06;47.33;100871.28;5075469;28;45347;-62
2021/07/02 09:05:50;;;;;;;;;35.75;32.00;;;;;26.34;46.51;100870.34;5074154;28;45361;-62
2021/07/02 09:08:15;;;;;;;;;46.25;36.50;;;;;26.57;46.21;100859.88;5075434;27;45264;-61
2021/07/02 09:10:41;;;;;;;;;41.00;34.75;;;;;26.94;46.10;100866.81;5074150;28;47163;-59
2021/07/02 09:13:06;;;;;;;;;37.75;32.25;;;;;27.30;45.10;100865.75;5075352;27;45291;-61
2021/07/02 09:15:32;;;;;;;;;41.75;33.75;;;;;27.64;45.00;100861.31;5075553;28;45953;-60
2021/07/02 09:17:59;;;;;;;;;35.00;30.50;;;;;27.96;44.36;100862.31;5074288;28;45691;-62
2021/07/02 09:20:27;;;;;;;;;37.00;30.25;;;;;28.20;43.78;100858.78;5074755;28;46211;-60
2021/07/02 09:22:57;;;;;;;;;32.00;29.25;;;;;28.42;42.60;100859.06;5074787;27;45322;-60
2021/07/02 09:25:25;;;;;;;;;42.00;35.25;;;;;28.58;42.47;100853.63;5073596;28;45485;-59
2021/07/02 09:27:51;;;;;;;;;32.00;29.75;;;;;28.83;41.95;100850.84;5075639;28;45637;-60
2021/07/02 09:30:22;;;;;;;;;34.00;29.25;;;;;28.96;41.25;100855.72;5073861;28;47260;-60
2021/07/02 09:32:52;;;;;;;;;35.00;30.50;;;;;29.04;40.79;100851.25;5075256;27;45307;-62
2021/07/02 09:35:18;;;;;;;;;38.75;33.00;;;;;29.12;40.66;100848.50;5057563;28;45456;-62
2021/07/02 09:37:50;;;;;;;;;36.75;31.25;;;;;29.33;40.31;100849.75;5079008;27;45508;-62
2021/07/02 09:40:27;;;;;;;;;20.50;20.00;;;;;29.48;39.94;100842.56;5078669;27;46355;-62
2021/07/02 09:42:59;;;;;;;;;26.25;23.25;;;;;29.50;39.13;100845.91;5078530;27;45378;-62
2021/07/02 09:45:25;;;;;;;;;19.75;19.50;;;;;29.55;38.49;100840.81;5078788;28;45342;-60
2021/07/02 09:47:51;;;;;;;;;29.75;26.50;;;;;29.62;38.26;100835.50;5078540;27;45314;-61
2021/07/02 09:50:25;;;;;;;;;22.50;22.50;;;;;29.76;38.24;100833.03;5078429;27;45416;-63
2021/07/02 09:52:51;;;;;;;;;20.75;16.75;;;;;29.54;37.90;100838.28;5077297;28;45329;-62
2021/07/02 09:55:19;;;;;;;;;21.25;17.50;;;;;29.37;38.30;100845.66;5078440;28;45397;-64
2021/07/02 09:57:45;;;;;;;;;16.50;15.25;;;;;29.56;38.18;100839.78;5077301;28;45306;-61
2021/07/02 10:00:12;;;;;;;;;14.50;14.00;;;;;29.91;37.12;100844.75;5078229;28;46249;-60
2021/07/02 10:02:38;;;;;;;;;17.50;15.50;;;;;30.31;36.94;100837.28;5076758;28;45507;-61
2021/07/02 10:05:04;;;;;;;;;21.00;18.25;;;;;30.78;37.20;100836.28;5059950;28;45449;-59
2021/07/02 10:07:29;;;;;;;;;14.00;13.00;;;;;30.96;35.74;100833.13;5078704;28;45462;-59
2021/07/02 10:09:55;;;;;;;;;16.00;15.25;;;;;31.08;35.45;100839.75;5077871;28;46999;-59
2021/07/02 10:12:21;;;;;;;;;16.75;16.75;;;;;31.01;35.49;100836.97;5076628;28;45290;-59
2021/07/02 10:14:48;;;;;;;;;25.00;23.75;;;;;30.89;34.99;100833.06;5078139;27;45337;-61
2021/07/02 10:17:14;;;;;;;;;20.50;17.75;;;;;30.85;35.48;100835.31;5077189;28;45603;-60
2021/07/02 10:19:41;;;;;;;;;19.00;18.75;;;;;30.76;36.04;100831.03;5059389;27;45351;-61
2021/07/02 10:22:08;;;;;;;;;26.00;23.50;;;;;30.67;35.66;100827.56;5077788;27;45521;-59
2021/07/02 10:24:34;;;;;;;;;19.00;19.00;;;;;30.54;35.47;100828.22;5076407;28;45420;-61
2021/07/02 10:26:59;;;;;;;;;17.00;15.00;;;;;30.30;34.97;100834.75;5076064;28;46315;-61
2021/07/02 10:29:24;;;;;;;;;23.75;23.75;;;;;30.10;35.54;100835.28;5075476;28;59921;-64
2021/07/02 10:31:50;;;;;;;;;19.50;17.75;;;;;30.17;35.60;100829.97;5075937;28;55044;-60
2021/07/02 10:34:15;;;;;;;;;20.25;20.25;;;;;30.45;35.81;100822.03;5076753;28;45517;-61
2021/07/02 10:36:41;;;;;;;;;21.00;19.50;;;;;30.72;35.43;100825.13;5075461;28;52957;-61
2021/07/02 10:39:30;;;;;;;;;29.50;21.75;;;;;30.83;35.25;100828.41;5075850;28;47047;-60
2021/07/02 10:42:06;;;;;;;;;16.75;15.00;;;;;30.74;35.20;100824.94;5077007;28;45363;-62
2021/07/02 10:44:32;;;;;;;;;25.25;23.25;;;;;30.56;35.37;100830.72;5077228;28;45754;-59
2021/07/02 10:46:57;;;;;;;;;20.75;20.75;;;;;30.58;35.23;100832.22;5076871;28;45445;-62
2021/07/02 10:49:23;;;;;;;;;12.50;11.25;;;;;30.60;35.00;100830.19;5076519;28;46268;-62
2021/07/02 10:51:54;;;;;;;;;36.50;32.25;;;;;30.65;35.09;100829.63;5072974;28;45332;-60
2021/07/02 10:54:24;;;;;;;;;26.50;21.50;;;;;30.76;34.84;100836.47;5077131;28;45340;-62
2021/07/02 10:56:56;;;;;;;;;34.50;31.25;;;;;30.92;35.33;100829.13;5077384;27;45453;-62
2021/07/02 10:59:23;;;;;;;;;15.75;14.75;;;;;31.04;34.68;100839.31;5077157;28;45685;-61
2021/07/02 11:02:12;;;;;;;;;20.50;20.00;;;;;31.17;34.80;100833.19;5075227;28;45464;-61
2021/07/02 11:04:44;;;;;;;;;16.75;16.00;;;;;31.31;33.90;100831.47;5076864;28;45480;-59
2021/07/02 11:07:12;;;;;;;;;15.50;15.25;;;;;31.37;33.81;100819.00;5077070;27;45565;-61
2021/07/02 11:12:27;;;;;;;;;16.00;15.25;;;;;31.10;33.92;100818.66;5077775;28;45310;-60